sensor_id;sensor_type;location;lat;lon;timestamp;P1;durP1;ratioP1;P2;durP2;ratioP2
32838;SDS011;19182;41.820;12.808;2024-01-25T00:01:48;13.68;;;5.78;;
32838;SDS011;19182;41.820;12.808;2024-01-25T00:04:14;12.10;;;5.75;;
32838;SDS011;19182;41.820;12.808;2024-01-25T00:06:41;6.20;;;4.60;;
32838;SDS011;19182;41.820;12.808;2024-01-25T00:09:06;11.20;;;5.22;;
32838;SDS011;19182;41.820;12.808;2024-01-25T00:11:34;9.65;;;5.57;;
32838;SDS011;19182;41.820;12.808;2024-01-25T00:14:01;12.63;;;5.43;;
32838;SDS011;19182;41.820;12.808;2024-01-25T00:16:28;13.40;;;4.97;;
32838;SDS011;19182;41.820;12.808;2024-01-25T00:18:54;11.05;;;5.18;;
32838;SDS011;19182;41.820;12.808;2024-01-25T00:21:19;10.20;;;4.93;;
32838;SDS011;19182;41.820;12.808;2024-01-25T00:23:45;7.95;;;4.53;;
32838;SDS011;19182;41.820;12.808;2024-01-25T00:26:11;13.23;;;4.70;;
32838;SDS011;19182;41.820;12.808;2024-01-25T00:28:37;11.23;;;4.80;;
32838;SDS011;19182;41.820;12.808;2024-01-25T00:31:03;14.18;;;4.35;;
32838;SDS011;19182;41.820;12.808;2024-01-25T00:33:30;16.55;;;4.57;;
32838;SDS011;19182;41.820;12.808;2024-01-25T00:35:58;14.00;;;5.00;;
32838;SDS011;19182;41.820;12.808;2024-01-25T00:38:25;14.48;;;4.22;;
32838;SDS011;19182;41.820;12.808;2024-01-25T00:40:51;10.23;;;4.15;;
32838;SDS011;19182;41.820;12.808;2024-01-25T00:43:17;11.65;;;4.43;;
32838;SDS011;19182;41.820;12.808;2024-01-25T00:45:45;11.48;;;4.35;;
32838;SDS011;19182;41.820;12.808;2024-01-25T00:48:11;9.80;;;4.32;;
32838;SDS011;19182;41.820;12.808;2024-01-25T00:50:37;13.50;;;3.85;;
32838;SDS011;19182;41.820;12.808;2024-01-25T00:53:03;7.03;;;3.90;;
32838;SDS011;19182;41.820;12.808;2024-01-25T00:55:31;10.45;;;4.22;;
32838;SDS011;19182;41.820;12.808;2024-01-25T00:57:57;8.13;;;3.85;;
32838;SDS011;19182;41.820;12.808;2024-01-25T01:00:24;14.32;;;3.58;;
32838;SDS011;19182;41.820;12.808;2024-01-25T01:02:51;10.90;;;4.13;;
32838;SDS011;19182;41.820;12.808;2024-01-25T01:05:18;10.20;;;4.25;;
32838;SDS011;19182;41.820;12.808;2024-01-25T01:07:45;12.00;;;4.55;;
32838;SDS011;19182;41.820;12.808;2024-01-25T01:10:12;17.10;;;4.75;;
32838;SDS011;19182;41.820;12.808;2024-01-25T01:12:39;8.65;;;3.90;;
32838;SDS011;19182;41.820;12.808;2024-01-25T01:15:06;9.35;;;3.75;;
32838;SDS011;19182;41.820;12.808;2024-01-25T01:17:32;10.90;;;3.80;;
32838;SDS011;19182;41.820;12.808;2024-01-25T01:19:59;15.35;;;4.22;;
32838;SDS011;19182;41.820;12.808;2024-01-25T01:22:24;9.85;;;3.67;;
32838;SDS011;19182;41.820;12.808;2024-01-25T01:24:50;8.52;;;4.72;;
32838;SDS011;19182;41.820;12.808;2024-01-25T01:27:16;12.60;;;4.05;;
32838;SDS011;19182;41.820;12.808;2024-01-25T01:29:42;13.35;;;3.70;;
32838;SDS011;19182;41.820;12.808;2024-01-25T01:32:07;16.30;;;3.78;;
32838;SDS011;19182;41.820;12.808;2024-01-25T01:34:33;11.27;;;3.30;;
32838;SDS011;19182;41.820;12.808;2024-01-25T01:36:59;9.25;;;3.75;;
32838;SDS011;19182;41.820;12.808;2024-01-25T01:39:28;15.00;;;3.40;;
32838;SDS011;19182;41.820;12.808;2024-01-25T01:41:54;11.20;;;4.05;;
32838;SDS011;19182;41.820;12.808;2024-01-25T01:44:19;9.88;;;3.53;;
32838;SDS011;19182;41.820;12.808;2024-01-25T01:46:46;12.57;;;3.50;;
32838;SDS011;19182;41.820;12.808;2024-01-25T01:49:12;14.50;;;3.25;;
32838;SDS011;19182;41.820;12.808;2024-01-25T01:51:42;7.78;;;3.10;;
32838;SDS011;19182;41.820;12.808;2024-01-25T01:54:10;11.38;;;3.42;;
32838;SDS011;19182;41.820;12.808;2024-01-25T01:56:37;11.40;;;3.75;;
32838;SDS011;19182;41.820;12.808;2024-01-25T01:59:05;9.25;;;3.90;;
32838;SDS011;19182;41.820;12.808;2024-01-25T02:01:34;13.68;;;3.42;;
32838;SDS011;19182;41.820;12.808;2024-01-25T02:04:00;9.98;;;3.15;;
32838;SDS011;19182;41.820;12.808;2024-01-25T02:06:27;8.40;;;3.58;;
32838;SDS011;19182;41.820;12.808;2024-01-25T02:08:54;10.93;;;3.17;;
32838;SDS011;19182;41.820;12.808;2024-01-25T02:11:23;15.90;;;3.75;;
32838;SDS011;19182;41.820;12.808;2024-01-25T02:13:49;14.18;;;3.15;;
32838;SDS011;19182;41.820;12.808;2024-01-25T02:16:18;9.30;;;3.22;;
32838;SDS011;19182;41.820;12.808;2024-01-25T02:18:45;11.77;;;3.17;;
32838;SDS011;19182;41.820;12.808;2024-01-25T02:21:12;11.82;;;3.22;;
32838;SDS011;19182;41.820;12.808;2024-01-25T02:23:39;13.27;;;3.60;;
32838;SDS011;19182;41.820;12.808;2024-01-25T02:26:06;10.00;;;3.40;;
32838;SDS011;19182;41.820;12.808;2024-01-25T02:28:31;11.23;;;3.40;;
32838;SDS011;19182;41.820;12.808;2024-01-25T02:30:58;13.50;;;3.20;;
32838;SDS011;19182;41.820;12.808;2024-01-25T02:33:25;10.02;;;3.10;;
32838;SDS011;19182;41.820;12.808;2024-01-25T02:35:50;11.82;;;2.90;;
32838;SDS011;19182;41.820;12.808;2024-01-25T02:38:16;12.68;;;3.28;;
32838;SDS011;19182;41.820;12.808;2024-01-25T02:40:43;8.10;;;3.13;;
32838;SDS011;19182;41.820;12.808;2024-01-25T02:43:10;11.10;;;3.25;;
32838;SDS011;19182;41.820;12.808;2024-01-25T02:45:35;12.52;;;3.85;;
32838;SDS011;19182;41.820;12.808;2024-01-25T02:48:03;13.48;;;3.80;;
32838;SDS011;19182;41.820;12.808;2024-01-25T02:50:29;16.45;;;3.45;;
32838;SDS011;19182;41.820;12.808;2024-01-25T02:52:55;11.40;;;3.30;;
32838;SDS011;19182;41.820;12.808;2024-01-25T02:55:23;12.38;;;3.92;;
32838;SDS011;19182;41.820;12.808;2024-01-25T02:57:48;12.00;;;3.58;;
32838;SDS011;19182;41.820;12.808;2024-01-25T03:00:15;11.77;;;4.32;;
32838;SDS011;19182;41.820;12.808;2024-01-25T03:02:41;12.23;;;4.00;;
32838;SDS011;19182;41.820;12.808;2024-01-25T03:05:08;11.60;;;3.78;;
32838;SDS011;19182;41.820;12.808;2024-01-25T03:07:34;16.52;;;4.20;;
32838;SDS011;19182;41.820;12.808;2024-01-25T03:10:00;11.95;;;3.60;;
32838;SDS011;19182;41.820;12.808;2024-01-25T03:12:26;9.68;;;3.50;;
32838;SDS011;19182;41.820;12.808;2024-01-25T03:14:53;21.20;;;4.55;;
32838;SDS011;19182;41.820;12.808;2024-01-25T03:17:22;12.55;;;3.45;;
32838;SDS011;19182;41.820;12.808;2024-01-25T03:19:49;10.02;;;3.53;;
32838;SDS011;19182;41.820;12.808;2024-01-25T03:22:14;11.45;;;3.53;;
32838;SDS011;19182;41.820;12.808;2024-01-25T03:24:40;11.63;;;3.42;;
32838;SDS011;19182;41.820;12.808;2024-01-25T03:27:07;9.80;;;3.47;;
32838;SDS011;19182;41.820;12.808;2024-01-25T03:29:40;13.35;;;4.60;;
32838;SDS011;19182;41.820;12.808;2024-01-25T03:32:07;11.90;;;3.43;;
32838;SDS011;19182;41.820;12.808;2024-01-25T03:34:34;13.85;;;4.20;;
32838;SDS011;19182;41.820;12.808;2024-01-25T03:37:01;13.68;;;3.60;;
32838;SDS011;19182;41.820;12.808;2024-01-25T03:39:28;7.85;;;3.53;;
32838;SDS011;19182;41.820;12.808;2024-01-25T03:41:53;11.63;;;3.38;;
32838;SDS011;19182;41.820;12.808;2024-01-25T03:44:20;7.95;;;3.55;;
32838;SDS011;19182;41.820;12.808;2024-01-25T03:46:46;13.45;;;3.85;;
32838;SDS011;19182;41.820;12.808;2024-01-25T03:49:11;11.45;;;3.85;;
32838;SDS011;19182;41.820;12.808;2024-01-25T03:51:37;8.85;;;3.53;;
32838;SDS011;19182;41.820;12.808;2024-01-25T03:54:04;18.20;;;3.72;;
32838;SDS011;19182;41.820;12.808;2024-01-25T03:56:30;12.77;;;3.40;;
32838;SDS011;19182;41.820;12.808;2024-01-25T03:58:57;12.35;;;3.85;;
32838;SDS011;19182;41.820;12.808;2024-01-25T04:01:23;11.02;;;3.63;;
32838;SDS011;19182;41.820;12.808;2024-01-25T04:03:48;9.70;;;3.30;;
32838;SDS011;19182;41.820;12.808;2024-01-25T04:06:14;7.93;;;3.25;;
32838;SDS011;19182;41.820;12.808;2024-01-25T04:08:41;15.73;;;3.58;;
32838;SDS011;19182;41.820;12.808;2024-01-25T04:11:07;13.45;;;3.55;;
32838;SDS011;19182;41.820;12.808;2024-01-25T04:13:34;12.80;;;3.58;;
32838;SDS011;19182;41.820;12.808;2024-01-25T04:16:03;8.32;;;3.42;;
32838;SDS011;19182;41.820;12.808;2024-01-25T04:18:30;9.55;;;3.75;;
32838;SDS011;19182;41.820;12.808;2024-01-25T04:20:56;14.25;;;3.75;;
32838;SDS011;19182;41.820;12.808;2024-01-25T04:23:21;19.63;;;4.32;;
32838;SDS011;19182;41.820;12.808;2024-01-25T04:25:47;10.85;;;4.10;;
32838;SDS011;19182;41.820;12.808;2024-01-25T04:28:14;15.82;;;4.80;;
32838;SDS011;19182;41.820;12.808;2024-01-25T04:30:39;15.90;;;3.90;;
32838;SDS011;19182;41.820;12.808;2024-01-25T04:33:07;23.67;;;4.95;;
32838;SDS011;19182;41.820;12.808;2024-01-25T04:35:32;17.20;;;4.35;;
32838;SDS011;19182;41.820;12.808;2024-01-25T04:37:58;13.90;;;5.00;;
32838;SDS011;19182;41.820;12.808;2024-01-25T04:40:25;29.10;;;6.35;;
32838;SDS011;19182;41.820;12.808;2024-01-25T04:42:50;13.90;;;5.38;;
32838;SDS011;19182;41.820;12.808;2024-01-25T04:45:17;17.92;;;5.15;;
32838;SDS011;19182;41.820;12.808;2024-01-25T04:47:43;20.48;;;5.13;;
32838;SDS011;19182;41.820;12.808;2024-01-25T04:50:10;21.98;;;4.82;;
32838;SDS011;19182;41.820;12.808;2024-01-25T04:52:38;21.70;;;5.50;;
32838;SDS011;19182;41.820;12.808;2024-01-25T04:55:04;16.63;;;4.40;;
32838;SDS011;19182;41.820;12.808;2024-01-25T04:57:30;18.40;;;4.50;;
32838;SDS011;19182;41.820;12.808;2024-01-25T04:59:57;10.77;;;4.13;;
32838;SDS011;19182;41.820;12.808;2024-01-25T05:02:23;19.15;;;4.63;;
32838;SDS011;19182;41.820;12.808;2024-01-25T05:04:50;19.15;;;4.80;;
32838;SDS011;19182;41.820;12.808;2024-01-25T05:07:22;16.30;;;3.55;;
32838;SDS011;19182;41.820;12.808;2024-01-25T05:09:47;13.88;;;4.00;;
32838;SDS011;19182;41.820;12.808;2024-01-25T05:12:14;11.25;;;4.00;;
32838;SDS011;19182;41.820;12.808;2024-01-25T05:14:42;13.88;;;3.47;;
32838;SDS011;19182;41.820;12.808;2024-01-25T05:17:08;13.75;;;4.43;;
32838;SDS011;19182;41.820;12.808;2024-01-25T05:19:37;16.15;;;4.50;;
32838;SDS011;19182;41.820;12.808;2024-01-25T05:22:04;22.73;;;5.28;;
32838;SDS011;19182;41.820;12.808;2024-01-25T05:24:32;19.38;;;5.22;;
32838;SDS011;19182;41.820;12.808;2024-01-25T05:26:59;43.72;;;12.55;;
32838;SDS011;19182;41.820;12.808;2024-01-25T05:29:27;48.17;;;17.63;;
32838;SDS011;19182;41.820;12.808;2024-01-25T05:31:55;37.97;;;13.98;;
32838;SDS011;19182;41.820;12.808;2024-01-25T05:34:22;28.77;;;8.65;;
32838;SDS011;19182;41.820;12.808;2024-01-25T05:36:49;26.88;;;10.30;;
32838;SDS011;19182;41.820;12.808;2024-01-25T05:39:15;28.80;;;9.18;;
32838;SDS011;19182;41.820;12.808;2024-01-25T05:41:42;19.73;;;6.70;;
32838;SDS011;19182;41.820;12.808;2024-01-25T05:44:12;23.55;;;7.47;;
32838;SDS011;19182;41.820;12.808;2024-01-25T05:46:39;21.20;;;6.28;;
32838;SDS011;19182;41.820;12.808;2024-01-25T05:49:05;16.52;;;6.00;;
32838;SDS011;19182;41.820;12.808;2024-01-25T05:51:31;17.80;;;7.25;;
32838;SDS011;19182;41.820;12.808;2024-01-25T05:53:57;23.60;;;6.70;;
32838;SDS011;19182;41.820;12.808;2024-01-25T05:56:23;27.13;;;6.05;;
32838;SDS011;19182;41.820;12.808;2024-01-25T05:58:50;12.13;;;4.70;;
32838;SDS011;19182;41.820;12.808;2024-01-25T06:01:17;12.60;;;4.43;;
32838;SDS011;19182;41.820;12.808;2024-01-25T06:03:44;23.38;;;6.32;;
32838;SDS011;19182;41.820;12.808;2024-01-25T06:06:09;15.43;;;5.60;;
32838;SDS011;19182;41.820;12.808;2024-01-25T06:08:35;17.88;;;5.20;;
32838;SDS011;19182;41.820;12.808;2024-01-25T06:11:02;17.45;;;5.25;;
32838;SDS011;19182;41.820;12.808;2024-01-25T06:13:33;13.10;;;4.40;;
32838;SDS011;19182;41.820;12.808;2024-01-25T06:15:58;11.60;;;4.67;;
32838;SDS011;19182;41.820;12.808;2024-01-25T06:18:25;19.45;;;4.75;;
32838;SDS011;19182;41.820;12.808;2024-01-25T06:20:51;17.40;;;5.55;;
32838;SDS011;19182;41.820;12.808;2024-01-25T06:23:19;17.75;;;4.65;;
32838;SDS011;19182;41.820;12.808;2024-01-25T06:25:46;20.83;;;5.55;;
32838;SDS011;19182;41.820;12.808;2024-01-25T06:28:12;14.13;;;4.90;;
32838;SDS011;19182;41.820;12.808;2024-01-25T06:30:38;16.77;;;5.90;;
32838;SDS011;19182;41.820;12.808;2024-01-25T06:33:05;17.35;;;6.30;;
32838;SDS011;19182;41.820;12.808;2024-01-25T06:35:31;16.98;;;5.68;;
32838;SDS011;19182;41.820;12.808;2024-01-25T06:37:58;16.45;;;5.88;;
32838;SDS011;19182;41.820;12.808;2024-01-25T06:40:23;17.27;;;7.40;;
32838;SDS011;19182;41.820;12.808;2024-01-25T06:42:51;20.27;;;7.15;;
32838;SDS011;19182;41.820;12.808;2024-01-25T06:45:16;21.48;;;7.18;;
32838;SDS011;19182;41.820;12.808;2024-01-25T06:47:43;23.38;;;7.38;;
32838;SDS011;19182;41.820;12.808;2024-01-25T06:50:09;22.38;;;6.97;;
32838;SDS011;19182;41.820;12.808;2024-01-25T06:52:34;21.98;;;7.40;;
32838;SDS011;19182;41.820;12.808;2024-01-25T06:55:02;19.73;;;7.03;;
32838;SDS011;19182;41.820;12.808;2024-01-25T06:57:29;18.73;;;7.75;;
32838;SDS011;19182;41.820;12.808;2024-01-25T06:59:56;20.80;;;9.00;;
32838;SDS011;19182;41.820;12.808;2024-01-25T07:02:21;22.70;;;9.32;;
32838;SDS011;19182;41.820;12.808;2024-01-25T07:04:47;26.52;;;8.82;;
32838;SDS011;19182;41.820;12.808;2024-01-25T07:07:13;23.50;;;8.43;;
32838;SDS011;19182;41.820;12.808;2024-01-25T07:09:39;13.77;;;6.72;;
32838;SDS011;19182;41.820;12.808;2024-01-25T07:12:05;17.95;;;6.72;;
32838;SDS011;19182;41.820;12.808;2024-01-25T07:14:32;23.33;;;7.10;;
32838;SDS011;19182;41.820;12.808;2024-01-25T07:16:59;23.55;;;8.75;;
32838;SDS011;19182;41.820;12.808;2024-01-25T07:19:25;20.80;;;7.80;;
32838;SDS011;19182;41.820;12.808;2024-01-25T07:21:52;16.40;;;7.15;;
32838;SDS011;19182;41.820;12.808;2024-01-25T07:24:19;25.60;;;8.85;;
32838;SDS011;19182;41.820;12.808;2024-01-25T07:26:44;21.30;;;8.35;;
32838;SDS011;19182;41.820;12.808;2024-01-25T07:29:10;24.55;;;8.25;;
32838;SDS011;19182;41.820;12.808;2024-01-25T07:31:36;15.65;;;7.72;;
32838;SDS011;19182;41.820;12.808;2024-01-25T07:34:04;15.05;;;7.22;;
32838;SDS011;19182;41.820;12.808;2024-01-25T07:36:29;19.95;;;7.00;;
32838;SDS011;19182;41.820;12.808;2024-01-25T07:38:56;26.00;;;7.68;;
32838;SDS011;19182;41.820;12.808;2024-01-25T07:41:26;18.75;;;7.43;;
32838;SDS011;19182;41.820;12.808;2024-01-25T07:43:53;14.10;;;6.47;;
32838;SDS011;19182;41.820;12.808;2024-01-25T07:46:21;25.75;;;8.05;;
32838;SDS011;19182;41.820;12.808;2024-01-25T07:48:47;18.70;;;8.00;;
32838;SDS011;19182;41.820;12.808;2024-01-25T07:51:14;23.23;;;8.63;;
32838;SDS011;19182;41.820;12.808;2024-01-25T07:53:41;24.90;;;7.93;;
32838;SDS011;19182;41.820;12.808;2024-01-25T07:56:10;21.92;;;7.68;;
32838;SDS011;19182;41.820;12.808;2024-01-25T07:58:39;20.17;;;9.32;;
32838;SDS011;19182;41.820;12.808;2024-01-25T08:01:05;18.52;;;8.90;;
32838;SDS011;19182;41.820;12.808;2024-01-25T08:03:31;26.38;;;9.52;;
32838;SDS011;19182;41.820;12.808;2024-01-25T08:05:59;26.77;;;8.75;;
32838;SDS011;19182;41.820;12.808;2024-01-25T08:08:25;28.25;;;13.30;;
32838;SDS011;19182;41.820;12.808;2024-01-25T08:10:52;38.70;;;22.58;;
32838;SDS011;19182;41.820;12.808;2024-01-25T08:13:26;65.88;;;31.05;;
32838;SDS011;19182;41.820;12.808;2024-01-25T08:15:55;31.27;;;12.95;;
32838;SDS011;19182;41.820;12.808;2024-01-25T08:18:25;19.30;;;8.93;;
32838;SDS011;19182;41.820;12.808;2024-01-25T08:20:56;21.50;;;8.13;;
32838;SDS011;19182;41.820;12.808;2024-01-25T08:23:28;23.08;;;7.15;;
32838;SDS011;19182;41.820;12.808;2024-01-25T08:26:00;15.02;;;6.97;;
32838;SDS011;19182;41.820;12.808;2024-01-25T08:28:29;23.55;;;11.00;;
32838;SDS011;19182;41.820;12.808;2024-01-25T08:30:56;21.40;;;6.82;;
32838;SDS011;19182;41.820;12.808;2024-01-25T08:33:22;15.77;;;6.07;;
32838;SDS011;19182;41.820;12.808;2024-01-25T08:35:50;14.38;;;5.05;;
32838;SDS011;19182;41.820;12.808;2024-01-25T08:38:17;23.50;;;10.90;;
32838;SDS011;19182;41.820;12.808;2024-01-25T08:40:44;17.42;;;6.00;;
32838;SDS011;19182;41.820;12.808;2024-01-25T08:43:15;20.48;;;7.88;;
32838;SDS011;19182;41.820;12.808;2024-01-25T08:45:42;19.48;;;5.55;;
32838;SDS011;19182;41.820;12.808;2024-01-25T08:48:08;21.48;;;6.43;;
32838;SDS011;19182;41.820;12.808;2024-01-25T08:50:35;19.90;;;9.73;;
32838;SDS011;19182;41.820;12.808;2024-01-25T08:53:01;19.60;;;5.88;;
32838;SDS011;19182;41.820;12.808;2024-01-25T08:55:27;16.08;;;8.30;;
32838;SDS011;19182;41.820;12.808;2024-01-25T08:57:53;13.90;;;5.68;;
32838;SDS011;19182;41.820;12.808;2024-01-25T09:00:20;13.75;;;5.43;;
32838;SDS011;19182;41.820;12.808;2024-01-25T09:02:45;20.67;;;5.10;;
32838;SDS011;19182;41.820;12.808;2024-01-25T09:05:13;11.95;;;5.47;;
32838;SDS011;19182;41.820;12.808;2024-01-25T09:07:39;23.73;;;14.65;;
32838;SDS011;19182;41.820;12.808;2024-01-25T09:10:05;11.15;;;4.32;;
32838;SDS011;19182;41.820;12.808;2024-01-25T09:12:33;11.38;;;4.40;;
32838;SDS011;19182;41.820;12.808;2024-01-25T09:17:30;13.38;;;4.75;;
32838;SDS011;19182;41.820;12.808;2024-01-25T09:19:56;14.80;;;4.90;;
32838;SDS011;19182;41.820;12.808;2024-01-25T09:22:25;16.58;;;6.38;;
32838;SDS011;19182;41.820;12.808;2024-01-25T09:24:50;17.58;;;6.90;;
32838;SDS011;19182;41.820;12.808;2024-01-25T09:27:16;15.77;;;7.10;;
32838;SDS011;19182;41.820;12.808;2024-01-25T09:29:42;20.50;;;7.28;;
32838;SDS011;19182;41.820;12.808;2024-01-25T09:32:08;14.93;;;6.28;;
32838;SDS011;19182;41.820;12.808;2024-01-25T09:34:35;15.55;;;5.25;;
32838;SDS011;19182;41.820;12.808;2024-01-25T09:37:02;14.25;;;4.82;;
32838;SDS011;19182;41.820;12.808;2024-01-25T09:39:28;12.63;;;5.10;;
32838;SDS011;19182;41.820;12.808;2024-01-25T09:42:00;22.75;;;6.00;;
32838;SDS011;19182;41.820;12.808;2024-01-25T09:44:28;22.48;;;8.25;;
32838;SDS011;19182;41.820;12.808;2024-01-25T09:46:54;21.65;;;7.57;;
32838;SDS011;19182;41.820;12.808;2024-01-25T09:49:20;18.13;;;6.43;;
32838;SDS011;19182;41.820;12.808;2024-01-25T09:51:46;15.65;;;6.80;;
32838;SDS011;19182;41.820;12.808;2024-01-25T09:54:16;19.77;;;6.85;;
32838;SDS011;19182;41.820;12.808;2024-01-25T09:56:42;13.13;;;5.93;;
32838;SDS011;19182;41.820;12.808;2024-01-25T09:59:07;17.30;;;5.78;;
32838;SDS011;19182;41.820;12.808;2024-01-25T10:01:34;19.75;;;6.05;;
32838;SDS011;19182;41.820;12.808;2024-01-25T10:04:00;19.15;;;6.60;;
32838;SDS011;19182;41.820;12.808;2024-01-25T10:06:26;16.88;;;6.45;;
32838;SDS011;19182;41.820;12.808;2024-01-25T10:08:52;20.05;;;6.80;;
32838;SDS011;19182;41.820;12.808;2024-01-25T10:11:18;21.80;;;7.22;;
32838;SDS011;19182;41.820;12.808;2024-01-25T10:13:45;18.73;;;6.03;;
32838;SDS011;19182;41.820;12.808;2024-01-25T10:16:13;17.23;;;6.43;;
32838;SDS011;19182;41.820;12.808;2024-01-25T10:18:40;14.07;;;5.78;;
32838;SDS011;19182;41.820;12.808;2024-01-25T10:21:10;21.20;;;6.60;;
32838;SDS011;19182;41.820;12.808;2024-01-25T10:23:36;19.38;;;6.28;;
32838;SDS011;19182;41.820;12.808;2024-01-25T10:26:03;16.23;;;5.70;;
32838;SDS011;19182;41.820;12.808;2024-01-25T10:28:29;21.42;;;6.35;;
32838;SDS011;19182;41.820;12.808;2024-01-25T10:30:59;15.88;;;5.97;;
32838;SDS011;19182;41.820;12.808;2024-01-25T10:33:27;23.05;;;5.85;;
32838;SDS011;19182;41.820;12.808;2024-01-25T10:35:56;17.20;;;4.38;;
32838;SDS011;19182;41.820;12.808;2024-01-25T10:38:31;14.95;;;4.40;;
32838;SDS011;19182;41.820;12.808;2024-01-25T10:41:01;14.18;;;3.60;;
32838;SDS011;19182;41.820;12.808;2024-01-25T10:43:28;17.48;;;3.85;;
32838;SDS011;19182;41.820;12.808;2024-01-25T10:45:57;15.80;;;4.10;;
32838;SDS011;19182;41.820;12.808;2024-01-25T10:48:25;17.75;;;4.15;;
32838;SDS011;19182;41.820;12.808;2024-01-25T10:50:54;22.45;;;6.40;;
32838;SDS011;19182;41.820;12.808;2024-01-25T10:53:21;19.15;;;5.80;;
32838;SDS011;19182;41.820;12.808;2024-01-25T10:55:49;19.25;;;5.25;;
32838;SDS011;19182;41.820;12.808;2024-01-25T10:58:18;17.00;;;5.63;;
32838;SDS011;19182;41.820;12.808;2024-01-25T11:00:56;14.60;;;5.40;;
32838;SDS011;19182;41.820;12.808;2024-01-25T11:06:04;21.05;;;6.10;;
32838;SDS011;19182;41.820;12.808;2024-01-25T11:08:35;18.35;;;5.15;;
32838;SDS011;19182;41.820;12.808;2024-01-25T11:11:05;13.75;;;4.28;;
32838;SDS011;19182;41.820;12.808;2024-01-25T11:13:35;14.30;;;3.92;;
32838;SDS011;19182;41.820;12.808;2024-01-25T11:16:17;15.30;;;4.38;;
32838;SDS011;19182;41.820;12.808;2024-01-25T11:18:56;23.52;;;11.80;;
32838;SDS011;19182;41.820;12.808;2024-01-25T11:21:45;19.63;;;5.47;;
32838;SDS011;19182;41.820;12.808;2024-01-25T11:24:42;17.02;;;5.03;;
32838;SDS011;19182;41.820;12.808;2024-01-25T11:27:09;14.93;;;5.30;;
32838;SDS011;19182;41.820;12.808;2024-01-25T11:29:42;13.38;;;4.85;;
32838;SDS011;19182;41.820;12.808;2024-01-25T11:32:08;21.08;;;6.30;;
32838;SDS011;19182;41.820;12.808;2024-01-25T11:34:35;17.90;;;4.75;;
32838;SDS011;19182;41.820;12.808;2024-01-25T11:37:15;17.98;;;5.35;;
32838;SDS011;19182;41.820;12.808;2024-01-25T11:39:43;31.83;;;12.68;;
32838;SDS011;19182;41.820;12.808;2024-01-25T11:42:09;20.35;;;8.40;;
32838;SDS011;19182;41.820;12.808;2024-01-25T11:44:38;21.05;;;7.85;;
32838;SDS011;19182;41.820;12.808;2024-01-25T11:47:12;15.00;;;4.97;;
32838;SDS011;19182;41.820;12.808;2024-01-25T11:49:39;16.90;;;5.03;;
32838;SDS011;19182;41.820;12.808;2024-01-25T11:52:07;10.02;;;4.00;;
32838;SDS011;19182;41.820;12.808;2024-01-25T11:54:34;17.48;;;5.20;;
32838;SDS011;19182;41.820;12.808;2024-01-25T11:57:03;20.97;;;5.33;;
32838;SDS011;19182;41.820;12.808;2024-01-25T11:59:30;18.25;;;5.40;;
32838;SDS011;19182;41.820;12.808;2024-01-25T12:01:56;17.73;;;5.45;;
32838;SDS011;19182;41.820;12.808;2024-01-25T12:04:26;15.07;;;5.70;;
32838;SDS011;19182;41.820;12.808;2024-01-25T12:06:57;16.00;;;4.47;;
32838;SDS011;19182;41.820;12.808;2024-01-25T12:09:24;12.82;;;4.00;;
32838;SDS011;19182;41.820;12.808;2024-01-25T12:11:50;22.40;;;5.03;;
32838;SDS011;19182;41.820;12.808;2024-01-25T12:14:17;14.45;;;4.55;;
32838;SDS011;19182;41.820;12.808;2024-01-25T12:16:44;12.88;;;4.75;;
32838;SDS011;19182;41.820;12.808;2024-01-25T12:19:11;18.48;;;4.72;;
32838;SDS011;19182;41.820;12.808;2024-01-25T12:21:39;13.85;;;4.38;;
32838;SDS011;19182;41.820;12.808;2024-01-25T12:24:13;13.57;;;3.70;;
32838;SDS011;19182;41.820;12.808;2024-01-25T12:26:41;13.38;;;4.13;;
32838;SDS011;19182;41.820;12.808;2024-01-25T12:29:07;13.30;;;4.82;;
32838;SDS011;19182;41.820;12.808;2024-01-25T12:31:36;12.43;;;4.93;;
32838;SDS011;19182;41.820;12.808;2024-01-25T12:34:02;19.23;;;4.28;;
32838;SDS011;19182;41.820;12.808;2024-01-25T12:36:37;12.95;;;3.92;;
32838;SDS011;19182;41.820;12.808;2024-01-25T12:39:04;16.73;;;3.95;;
32838;SDS011;19182;41.820;12.808;2024-01-25T12:41:35;13.00;;;3.55;;
32838;SDS011;19182;41.820;12.808;2024-01-25T12:44:02;15.63;;;4.05;;
32838;SDS011;19182;41.820;12.808;2024-01-25T12:46:29;14.38;;;4.03;;
32838;SDS011;19182;41.820;12.808;2024-01-25T12:48:54;15.63;;;3.75;;
32838;SDS011;19182;41.820;12.808;2024-01-25T12:51:22;19.58;;;5.40;;
32838;SDS011;19182;41.820;12.808;2024-01-25T12:53:50;12.55;;;3.85;;
32838;SDS011;19182;41.820;12.808;2024-01-25T12:56:16;11.60;;;3.03;;
32838;SDS011;19182;41.820;12.808;2024-01-25T12:58:45;16.83;;;3.95;;
32838;SDS011;19182;41.820;12.808;2024-01-25T13:01:12;16.67;;;3.63;;
32838;SDS011;19182;41.820;12.808;2024-01-25T13:03:38;16.00;;;3.90;;
32838;SDS011;19182;41.820;12.808;2024-01-25T13:06:04;13.23;;;4.20;;
32838;SDS011;19182;41.820;12.808;2024-01-25T13:08:30;8.63;;;3.10;;
32838;SDS011;19182;41.820;12.808;2024-01-25T13:10:56;12.23;;;2.78;;
32838;SDS011;19182;41.820;12.808;2024-01-25T13:13:22;12.27;;;3.58;;
32838;SDS011;19182;41.820;12.808;2024-01-25T13:15:50;12.70;;;3.45;;
32838;SDS011;19182;41.820;12.808;2024-01-25T13:18:18;9.00;;;3.20;;
32838;SDS011;19182;41.820;12.808;2024-01-25T13:20:45;11.13;;;2.97;;
32838;SDS011;19182;41.820;12.808;2024-01-25T13:23:13;15.27;;;4.50;;
32838;SDS011;19182;41.820;12.808;2024-01-25T13:25:38;10.63;;;3.38;;
32838;SDS011;19182;41.820;12.808;2024-01-25T13:28:04;9.23;;;3.22;;
32838;SDS011;19182;41.820;12.808;2024-01-25T13:30:33;9.48;;;3.17;;
32838;SDS011;19182;41.820;12.808;2024-01-25T13:32:59;11.50;;;3.85;;
32838;SDS011;19182;41.820;12.808;2024-01-25T13:35:25;9.38;;;4.10;;
32838;SDS011;19182;41.820;12.808;2024-01-25T13:37:58;13.60;;;3.83;;
32838;SDS011;19182;41.820;12.808;2024-01-25T13:40:26;7.55;;;3.25;;
32838;SDS011;19182;41.820;12.808;2024-01-25T13:42:52;13.15;;;4.20;;
32838;SDS011;19182;41.820;12.808;2024-01-25T13:45:20;15.93;;;4.53;;
32838;SDS011;19182;41.820;12.808;2024-01-25T13:47:46;12.48;;;4.57;;
32838;SDS011;19182;41.820;12.808;2024-01-25T13:50:16;14.02;;;5.07;;
32838;SDS011;19182;41.820;12.808;2024-01-25T13:52:46;10.55;;;4.35;;
32838;SDS011;19182;41.820;12.808;2024-01-25T13:57:38;15.02;;;4.93;;
32838;SDS011;19182;41.820;12.808;2024-01-25T14:00:05;13.63;;;4.60;;
32838;SDS011;19182;41.820;12.808;2024-01-25T14:02:33;23.13;;;5.25;;
32838;SDS011;19182;41.820;12.808;2024-01-25T14:04:59;14.20;;;5.13;;
32838;SDS011;19182;41.820;12.808;2024-01-25T14:07:26;13.45;;;5.13;;
32838;SDS011;19182;41.820;12.808;2024-01-25T14:09:52;21.98;;;5.38;;
32838;SDS011;19182;41.820;12.808;2024-01-25T14:12:19;19.85;;;5.40;;
32838;SDS011;19182;41.820;12.808;2024-01-25T14:14:44;22.25;;;5.55;;
32838;SDS011;19182;41.820;12.808;2024-01-25T14:17:11;16.08;;;5.97;;
32838;SDS011;19182;41.820;12.808;2024-01-25T14:19:38;19.33;;;5.72;;
32838;SDS011;19182;41.820;12.808;2024-01-25T14:22:05;19.08;;;6.20;;
32838;SDS011;19182;41.820;12.808;2024-01-25T14:24:32;23.10;;;5.70;;
32838;SDS011;19182;41.820;12.808;2024-01-25T14:27:11;17.33;;;6.25;;
32838;SDS011;19182;41.820;12.808;2024-01-25T14:29:38;19.80;;;6.28;;
32838;SDS011;19182;41.820;12.808;2024-01-25T14:32:16;13.90;;;5.20;;